Time;durP1;ratioP1;P1;durP2;ratioP2;P2;SDS_P1;SDS_P2;PMS_P1;PMS_P2;Temp;Humidity;BMP_temperature;BMP_pressure;BME280_temperature;BME280_humidity;BME280_pressure;Samples;Min_cycle;Max_cycle;Signal;HPM_P1;HPM_P2
2021/01/01 00:00:51;;;;;;;15.35;8.77;;;;;;;4.93;74.38;98628.97;3821754;23;20080;-77
2021/01/01 00:02:25;;;;;;;11.48;6.50;;;;;;;4.90;74.23;98630.09;3818471;23;20521;-77
2021/01/01 00:03:57;;;;;;;12.80;7.45;;;;;;;4.93;74.44;98635.09;3821838;23;20021;-78
2021/01/01 00:05:28;;;;;;;12.20;7.43;;;;;;;4.91;74.42;98636.25;3818383;23;20028;-78
2021/01/01 00:07:01;;;;;;;11.55;6.32;;;;;;;4.93;74.39;98639.56;3821805;23;20030;-77
2021/01/01 00:08:32;;;;;;;9.80;6.03;;;;;;;4.97;74.12;98633.81;3818322;23;20033;-78
2021/01/01 00:10:06;;;;;;;13.93;7.25;;;;;;;4.97;74.23;98628.53;3821001;23;20025;-78
2021/01/01 00:11:43;;;;;;;11.88;6.90;;;;;;;4.98;73.77;98632.03;3818981;23;20025;-78
2021/01/01 00:13:16;;;;;;;14.32;9.10;;;;;;;4.94;74.26;98641.22;3821196;23;20033;-77
2021/01/01 00:14:48;;;;;;;11.43;7.30;;;;;;;4.91;74.33;98638.88;3818645;23;20022;-78
2021/01/01 00:16:20;;;;;;;14.18;9.05;;;;;;;4.85;74.57;98645.59;3821182;23;20025;-78
2021/01/01 00:17:51;;;;;;;15.50;9.23;;;;;;;4.78;74.47;98642.66;3818146;23;20022;-78
2021/01/01 00:19:23;;;;;;;14.38;8.68;;;;;;;4.80;74.65;98650.44;3821754;23;20029;-77
2021/01/01 00:20:54;;;;;;;13.38;8.13;;;;;;;4.82;74.52;98641.38;3820566;23;20021;-78
2021/01/01 00:24:09;;;;;;;17.50;9.65;;;;;;;4.80;74.65;98642.50;3823690;23;20009;-77
2021/01/01 00:25:43;;;;;;;14.35;8.82;;;;;;;4.74;74.43;98638.63;3821164;23;20426;-78
2021/01/01 00:27:15;;;;;;;14.93;9.40;;;;;;;4.80;74.55;98640.72;3812996;23;20021;-77
2021/01/01 00:28:47;;;;;;;14.10;7.65;;;;;;;4.74;74.52;98629.84;3820909;23;20026;-77
2021/01/01 00:30:20;;;;;;;15.40;9.13;;;;;;;4.77;74.65;98634.88;3818196;23;20529;-77
2021/01/01 00:31:51;;;;;;;13.82;8.45;;;;;;;4.88;74.55;98631.22;3821390;23;20941;-77
2021/01/01 00:33:22;;;;;;;13.65;7.03;;;;;;;4.81;74.76;98636.25;3798403;23;20478;-78
2021/01/01 00:34:55;;;;;;;14.95;7.93;;;;;;;4.87;74.62;98637.50;3820908;23;20021;-77
2021/01/01 00:36:26;;;;;;;13.90;7.95;;;;;;;4.91;74.53;98646.81;3813084;23;20033;-78
2021/01/01 00:37:58;;;;;;;13.82;8.23;;;;;;;4.92;74.44;98643.19;3821424;23;20165;-77
2021/01/01 00:39:30;;;;;;;12.93;6.90;;;;;;;4.92;74.37;98638.72;3813206;23;20021;-78
2021/01/01 00:41:04;;;;;;;15.57;7.93;;;;;;;4.93;74.06;98637.75;3821591;23;20359;-79
2021/01/01 00:42:36;;;;;;;17.88;9.07;;;;;;;4.98;74.33;98654.03;3815479;23;20017;-77
2021/01/01 00:44:08;;;;;;;12.95;7.55;;;;;;;4.99;74.40;98644.28;3820691;23;20032;-77
2021/01/01 00:45:39;;;;;;;10.95;6.22;;;;;;;4.99;74.35;98639.00;3811913;23;20025;-78
2021/01/01 00:47:12;;;;;;;13.40;7.85;;;;;;;5.00;73.95;98649.44;3820591;23;20021;-79
2021/01/01 00:48:43;;;;;;;12.88;8.32;;;;;;;4.99;74.33;98645.13;3813040;23;20022;-78
2021/01/01 00:50:15;;;;;;;16.58;10.27;;;;;;;5.00;74.27;98652.09;3820535;23;20105;-77
2021/01/01 00:51:46;;;;;;;15.30;8.55;;;;;;;4.94;74.26;98652.66;3812385;23;20030;-77
2021/01/01 00:53:18;;;;;;;13.35;7.10;;;;;;;4.94;74.27;98662.41;3820614;23;20466;-78
2021/01/01 00:54:49;;;;;;;16.52;10.00;;;;;;;4.97;74.18;98656.84;3813280;23;20053;-78
2021/01/01 00:56:22;;;;;;;15.13;8.80;;;;;;;4.97;74.05;98652.38;3814697;23;20105;-78
2021/01/01 00:57:56;;;;;;;18.85;9.10;;;;;;;5.00;73.87;98649.44;3821612;23;20026;-77
2021/01/01 00:59:29;;;;;;;17.67;9.75;;;;;;;5.07;74.10;98652.34;3815934;23;20084;-77
2021/01/01 01:01:00;;;;;;;14.68;8.32;;;;;;;5.02;73.86;98654.59;3821777;23;20022;-78
2021/01/01 01:02:32;;;;;;;14.77;8.60;;;;;;;5.06;73.79;98652.47;3816354;23;20025;-77
2021/01/01 01:04:05;;;;;;;17.25;10.20;;;;;;;5.04;73.95;98657.94;3822206;23;20021;-78
2021/01/01 01:05:37;;;;;;;11.90;6.50;;;;;;;5.07;73.71;98656.81;3817541;23;20036;-77
2021/01/01 01:07:14;;;;;;;15.27;8.45;;;;;;;5.10;73.50;98660.00;3821197;23;20466;-77
2021/01/01 01:08:46;;;;;;;14.10;8.10;;;;;;;5.02;73.66;98662.53;3812367;23;20024;-79
2021/01/01 01:10:18;;;;;;;15.40;8.30;;;;;;;5.03;73.95;98655.44;3822332;23;20335;-77
2021/01/01 01:11:52;;;;;;;13.65;7.97;;;;;;;4.99;73.96;98663.66;3814277;23;20017;-79
2021/01/01 01:13:26;;;;;;;15.40;9.20;;;;;;;4.92;74.17;98667.88;3832026;23;20021;-77
2021/01/01 01:14:58;;;;;;;17.60;9.10;;;;;;;4.90;74.04;98669.00;3824740;23;20024;-78
2021/01/01 01:16:52;;;;;;;15.68;8.85;;;;;;;4.90;74.12;98674.28;3834667;23;20029;-78
2021/01/01 01:18:42;;;;;;;15.40;8.73;;;;;;;4.80;73.99;98677.78;3827647;23;20021;-78
2021/01/01 01:23:12;;;;;;;13.13;8.43;;;;;;;4.69;74.73;98691.16;3833946;23;20085;-78
2021/01/01 01:24:43;;;;;;;14.05;8.65;;;;;;;4.62;74.84;98690.88;3826674;23;20045;-77
2021/01/01 01:26:19;;;;;;;12.23;7.32;;;;;;;4.73;74.90;98686.44;3834324;23;20017;-78
2021/01/01 01:28:05;;;;;;;14.45;8.18;;;;;;;4.69;74.38;98689.34;3828049;23;20359;-79
2021/01/01 01:29:37;;;;;;;13.50;7.90;;;;;;;4.71;74.63;98683.06;3825275;23;20022;-78
2021/01/01 01:31:09;;;;;;;11.65;7.47;;;;;;;4.73;74.60;98681.13;3824311;23;20021;-78
2021/01/01 01:32:40;;;;;;;14.63;8.00;;;;;;;4.74;74.64;98688.09;3812456;23;20235;-79
2021/01/01 01:34:15;;;;;;;11.27;6.72;;;;;;;4.71;74.48;98686.56;3821796;23;20033;-79
2021/01/01 01:35:46;;;;;;;13.10;7.45;;;;;;;4.78;74.61;98694.75;3813209;23;20013;-77
2021/01/01 01:37:18;;;;;;;13.27;7.57;;;;;;;4.76;74.45;98686.97;3821560;23;20029;-78
2021/01/01 01:38:50;;;;;;;12.23;7.82;;;;;;;4.81;74.40;98692.69;3813181;23;20029;-77
2021/01/01 01:40:26;;;;;;;11.10;6.57;;;;;;;4.83;74.33;98690.72;3820213;23;20048;-78
2021/01/01 01:41:57;;;;;;;10.77;6.65;;;;;;;4.89;74.30;98693.78;3811469;23;20049;-77
2021/01/01 01:43:30;;;;;;;11.02;6.90;;;;;;;4.97;74.28;98710.63;3820307;23;20028;-77
2021/01/01 01:45:01;;;;;;;10.00;6.28;;;;;;;4.91;74.13;98697.16;3815571;23;20040;-78
2021/01/01 01:46:40;;;;;;;12.57;7.07;;;;;;;4.90;74.04;98698.13;3820525;23;20095;-77
2021/01/01 01:48:21;;;;;;;11.93;7.00;;;;;;;4.87;74.29;98699.22;3812669;23;20029;-77
2021/01/01 01:49:54;;;;;;;13.07;7.28;;;;;;;4.93;74.54;98709.25;3820690;23;20021;-77
2021/01/01 01:51:27;;;;;;;14.73;8.48;;;;;;;4.86;74.48;98702.00;3812468;23;20025;-78
2021/01/01 01:53:01;;;;;;;11.60;7.15;;;;;;;4.91;74.49;98700.63;3820168;23;20017;-77
2021/01/01 01:54:34;;;;;;;14.63;7.38;;;;;;;4.84;74.58;98699.53;3812768;23;20029;-77
2021/01/01 01:56:07;;;;;;;12.70;7.63;;;;;;;4.84;74.65;98695.03;3820065;23;20017;-77
2021/01/01 01:57:43;;;;;;;12.57;7.53;;;;;;;4.81;74.47;98698.00;3812605;23;20068;-78
2021/01/01 01:59:21;;;;;;;11.05;6.90;;;;;;;4.86;74.35;98699.38;3820020;23;20024;-78
2021/01/01 02:00:57;;;;;;;11.77;8.02;;;;;;;4.89;74.46;98702.56;3813860;23;20022;-78
2021/01/01 02:04:09;;;;;;;15.07;7.78;;;;;;;4.84;74.31;98710.94;3820066;23;20092;-78
2021/01/01 02:05:40;;;;;;;13.43;7.78;;;;;;;4.84;74.58;98715.41;3812376;23;20023;-77
2021/01/01 02:07:12;;;;;;;13.27;7.32;;;;;;;4.83;74.38;98709.25;3820106;23;20222;-77
2021/01/01 02:08:43;;;;;;;13.43;7.40;;;;;;;4.88;74.59;98710.66;3811705;23;20044;-77
2021/01/01 02:10:20;;;;;;;12.60;6.90;;;;;;;4.92;74.09;98720.84;3820245;23;20022;-77
2021/01/01 02:11:54;;;;;;;12.50;7.57;;;;;;;4.93;74.00;98708.41;3812879;23;20021;-77
2021/01/01 02:13:27;;;;;;;10.55;6.15;;;;;;;5.03;74.12;98725.13;3820018;23;20029;-77
2021/01/01 02:15:17;;;;;;;11.05;6.50;;;;;;;4.94;73.83;98705.66;3811445;23;20028;-77
2021/01/01 02:16:51;;;;;;;12.82;6.85;;;;;;;4.99;74.00;98716.63;3820651;23;20026;-77
2021/01/01 02:18:34;;;;;;;11.35;6.10;;;;;;;5.01;73.59;98711.19;3813173;23;20014;-78
2021/01/01 02:20:10;;;;;;;9.27;5.38;;;;;;;5.06;73.84;98708.09;3820211;23;20517;-77
2021/01/01 02:21:42;;;;;;;11.75;6.47;;;;;;;5.07;73.73;98708.00;3812970;23;20080;-77
2021/01/01 02:23:34;;;;;;;14.25;7.47;;;;;;;5.06;73.47;98713.41;3820302;23;20026;-77
2021/01/01 02:25:07;;;;;;;12.00;6.13;;;;;;;5.06;73.74;98703.66;3814224;23;20022;-79
2021/01/01 02:26:40;;;;;;;8.85;5.85;;;;;;;5.03;73.81;98706.59;3812488;23;20029;-78
2021/01/01 02:28:13;;;;;;;10.45;6.50;;;;;;;5.06;73.68;98713.41;3820181;23;20018;-79
2021/01/01 02:29:47;;;;;;;8.35;5.13;;;;;;;5.07;73.63;98720.38;3811436;23;20022;-77
2021/01/01 02:31:18;;;;;;;10.18;5.97;;;;;;;5.06;73.81;98713.41;3820502;23;20477;-77
2021/01/01 02:32:54;;;;;;;12.38;7.65;;;;;;;5.12;73.80;98729.56;3813084;23;20351;-78
2021/01/01 02:34:26;;;;;;;10.50;6.30;;;;;;;5.07;74.09;98720.38;3820892;23;20033;-77
2021/01/01 02:35:58;;;;;;;12.02;7.05;;;;;;;5.07;74.13;98718.59;3812365;23;20343;-78
2021/01/01 02:37:31;;;;;;;11.65;6.95;;;;;;;5.02;74.20;98720.81;3820712;23;20026;-78
2021/01/01 02:39:04;;;;;;;11.60;6.97;;;;;;;4.99;74.24;98721.13;3812004;23;20340;-78
2021/01/01 02:40:44;;;;;;;11.77;7.53;;;;;;;4.93;74.44;98719.84;3821504;23;20022;-79
2021/01/01 02:42:17;;;;;;;12.70;7.03;;;;;;;4.96;74.47;98724.03;3812734;23;20040;-79
2021/01/01 02:43:50;;;;;;;11.52;6.53;;;;;;;4.94;74.72;98736.56;3821451;23;20072;-78
2021/01/01 02:45:22;;;;;;;12.48;7.03;;;;;;;4.89;74.55;98729.06;3809709;23;20069;-77
2021/01/01 02:47:00;;;;;;;14.35;7.43;;;;;;;4.90;74.56;98724.59;3820950;23;20033;-78
2021/01/01 02:48:32;;;;;;;13.98;8.52;;;;;;;4.84;74.54;98720.69;3811774;23;20024;-78
2021/01/01 02:50:04;;;;;;;12.23;6.85;;;;;;;4.87;74.86;98731.00;3821360;23;20021;-78
2021/01/01 02:51:36;;;;;;;12.68;7.30;;;;;;;4.86;74.88;98725.84;3810486;23;20459;-78
2021/01/01 02:53:09;;;;;;;12.20;7.05;;;;;;;4.84;75.00;98737.41;3820611;23;20101;-79
2021/01/01 02:54:44;;;;;;;15.55;9.00;;;;;;;4.76;74.97;98733.81;3812878;23;20080;-78
2021/01/01 02:56:17;;;;;;;11.98;7.30;;;;;;;4.84;74.94;98736.59;3821109;23;20032;-79
2021/01/01 02:57:49;;;;;;;12.65;7.22;;;;;;;4.82;75.05;98734.06;3811100;23;20025;-77
2021/01/01 02:59:27;;;;;;;13.73;8.45;;;;;;;4.80;75.03;98735.19;3812023;23;20347;-77
2021/01/01 03:00:58;;;;;;;12.27;8.27;;;;;;;4.80;75.40;98738.69;3821339;23;20025;-77
2021/01/01 03:02:30;;;;;;;13.45;8.20;;;;;;;4.76;75.30;98739.09;3812631;23;20022;-77
2021/01/01 03:04:01;;;;;;;15.43;8.65;;;;;;;4.75;75.41;98740.91;3820307;23;20064;-77
2021/01/01 03:05:32;;;;;;;14.77;8.77;;;;;;;4.66;75.34;98742.59;3813593;23;20028;-77
2021/01/01 03:07:04;;;;;;;11.48;6.97;;;;;;;4.67;75.57;98736.31;3821144;23;20100;-77
2021/01/01 03:08:36;;;;;;;14.35;8.15;;;;;;;4.67;75.43;98741.63;3813544;23;20028;-79
2021/01/01 03:10:09;;;;;;;14.05;8.15;;;;;;;4.62;75.64;98745.66;3821495;23;20028;-78
2021/01/01 03:11:41;;;;;;;12.13;6.95;;;;;;;4.60;75.60;98737.84;3812323;23;20025;-78
2021/01/01 03:13:12;;;;;;;13.82;8.45;;;;;;;4.63;75.85;98749.97;3820968;23;20040;-77
2021/01/01 03:14:44;;;;;;;16.33;9.30;;;;;;;4.55;75.81;98760.38;3814341;23;20118;-79
2021/01/01 03:16:22;;;;;;;14.65;9.18;;;;;;;4.47;75.84;98748.69;3826008;23;20018;-77
2021/01/01 03:17:55;;;;;;;15.40;8.32;;;;;;;4.49;76.00;98744.09;3812371;23;20088;-78
2021/01/01 03:19:26;;;;;;;14.48;8.15;;;;;;;4.50;76.36;98755.50;3821224;23;20021;-77
2021/01/01 03:20:59;;;;;;;16.20;7.85;;;;;;;4.47;76.35;98748.69;3813089;23;20118;-80
2021/01/01 03:22:30;;;;;;;14.57;8.82;;;;;;;4.39;76.30;98745.91;3822671;23;20447;-79
2021/01/01 03:24:02;;;;;;;13.15;7.93;;;;;;;4.44;76.43;98751.59;3813155;23;20025;-77
2021/01/01 03:25:39;;;;;;;11.18;6.68;;;;;;;4.46;76.48;98747.00;3822341;23;20029;-78
2021/01/01 03:27:10;;;;;;;14.57;8.00;;;;;;;4.50;76.45;98758.16;3812453;23;20105;-77
2021/01/01 03:28:48;;;;;;;12.38;7.65;;;;;;;4.49;76.35;98749.41;3820592;23;20024;-78
2021/01/01 03:30:22;;;;;;;13.45;7.70;;;;;;;4.50;76.53;98755.50;3813239;23;20029;-78
2021/01/01 03:31:53;;;;;;;10.80;7.10;;;;;;;4.56;76.12;98749.69;3821121;23;20025;-77
2021/01/01 03:33:28;;;;;;;12.32;6.78;;;;;;;4.58;76.23;98741.59;3812752;23;20041;-79
2021/01/01 03:35:00;;;;;;;11.95;7.07;;;;;;;4.59;76.12;98741.44;3821047;23;20363;-77
2021/01/01 03:36:31;;;;;;;11.38;6.30;;;;;;;4.62;76.04;98743.00;3812277;23;20014;-78
2021/01/01 03:38:04;;;;;;;11.13;6.40;;;;;;;4.64;75.94;98741.88;3820929;23;20044;-78
2021/01/01 03:39:36;;;;;;;15.10;7.85;;;;;;;4.66;75.82;98749.69;3809461;23;20029;-78
2021/01/01 03:41:10;;;;;;;11.32;7.07;;;;;;;4.74;75.91;98743.69;3820599;23;20028;-77
2021/01/01 03:42:44;;;;;;;13.48;7.63;;;;;;;4.72;75.75;98748.28;3812878;23;20021;-78
2021/01/01 03:44:17;;;;;;;14.50;8.35;;;;;;;4.64;75.79;98752.47;3821272;23;20029;-77
2021/01/01 03:45:49;;;;;;;14.10;7.25;;;;;;;4.72;75.99;98757.09;3812925;23;20025;-78
2021/01/01 03:47:20;;;;;;;15.00;8.00;;;;;;;4.73;75.92;98756.09;3817241;23;20076;-77
2021/01/01 03:48:54;;;;;;;13.60;8.55;;;;;;;4.65;75.92;98748.00;3819170;23;20025;-77
2021/01/01 03:50:25;;;;;;;13.25;7.95;;;;;;;4.67;76.01;98748.72;3812694;23;20089;-78
2021/01/01 03:51:57;;;;;;;13.13;7.57;;;;;;;4.66;76.03;98744.38;3820612;23;20029;-77
2021/01/01 03:53:28;;;;;;;11.65;7.07;;;;;;;4.73;75.78;98749.97;3812957;23;20028;-78
2021/01/01 03:55:00;;;;;;;13.95;7.82;;;;;;;4.72;75.83;98743.84;3821703;23;20420;-77
2021/01/01 03:56:32;;;;;;;12.00;6.63;;;;;;;4.82;75.63;98741.19;3811881;23;20032;-78
2021/01/01 03:58:04;;;;;;;10.52;6.00;;;;;;;4.87;75.41;98740.75;3820460;23;20025;-77
2021/01/01 03:59:36;;;;;;;12.43;7.03;;;;;;;4.92;75.18;98744.66;3795384;23;20021;-77
2021/01/01 04:01:10;;;;;;;11.98;6.28;;;;;;;4.90;75.07;98740.50;3801332;23;20108;-79
2021/01/01 04:02:45;;;;;;;11.23;5.88;;;;;;;4.94;74.93;98741.88;3810376;23;20025;-79
2021/01/01 04:04:35;;;;;;;12.80;7.15;;;;;;;4.93;74.95;98740.19;3821597;23;20024;-78
2021/01/01 04:06:08;;;;;;;10.32;6.65;;;;;;;4.93;75.10;98745.50;3815520;23;20022;-78
2021/01/01 04:07:46;;;;;;;15.57;7.15;;;;;;;4.89;74.78;98739.63;3825913;23;20029;-79
2021/01/01 04:09:22;;;;;;;13.05;7.63;;;;;;;4.95;74.98;98748.84;3813783;23;20025;-79
2021/01/01 04:10:55;;;;;;;14.00;7.25;;;;;;;4.97;74.98;98744.25;3820929;23;20056;-79
2021/01/01 04:12:27;;;;;;;12.27;6.30;;;;;;;5.03;74.99;98746.31;3815172;23;20390;-78
2021/01/01 04:14:09;;;;;;;8.73;4.63;;;;;;;4.99;74.43;98731.72;3820525;23;20033;-79
2021/01/01 04:15:40;;;;;;;12.93;6.93;;;;;;;5.08;74.66;98744.09;3819810;23;20490;-78
2021/01/01 04:17:11;;;;;;;7.88;4.95;;;;;;;5.12;74.72;98744.66;3833072;23;20022;-78
2021/01/01 04:19:29;;;;;;;12.95;5.50;;;;;;;5.13;74.25;98752.44;3825933;23;20072;-78
2021/01/01 04:21:01;;;;;;;10.02;5.32;;;;;;;5.14;74.59;98756.78;3824799;23;20022;-79
2021/01/01 04:22:32;;;;;;;14.30;7.20;;;;;;;5.14;74.34;98756.78;3826887;23;20470;-78
2021/01/01 04:24:14;;;;;;;11.63;6.50;;;;;;;5.09;74.00;98753.72;3816170;23;20009;-79
2021/01/01 04:25:47;;;;;;;15.55;9.32;;;;;;;5.03;74.34;98758.75;3822126;23;20025;-77
2021/01/01 04:27:22;;;;;;;14.48;7.97;;;;;;;5.00;74.60;98757.22;3813676;23;20076;-78
2021/01/01 04:28:54;;;;;;;14.25;7.30;;;;;;;5.00;74.67;98757.22;3820845;23;20032;-78
2021/01/01 04:30:27;;;;;;;12.98;6.32;;;;;;;4.98;74.57;98753.88;3810482;23;20081;-79
2021/01/01 04:31:59;;;;;;;8.95;4.75;;;;;;;5.02;74.44;98759.72;3820968;23;20026;-77
2021/01/01 04:33:30;;;;;;;10.20;5.70;;;;;;;5.03;74.43;98758.75;3811596;23;20017;-77
2021/01/01 04:35:08;;;;;;;10.88;5.25;;;;;;;5.00;74.08;98751.91;3820732;23;20067;-77
2021/01/01 04:36:40;;;;;;;11.65;5.90;;;;;;;5.02;74.29;98760.53;3812313;23;20032;-78
2021/01/01 04:38:11;;;;;;;8.70;4.95;;;;;;;5.04;74.11;98753.28;3820541;23;20100;-79
2021/01/01 04:39:43;;;;;;;11.43;6.93;;;;;;;4.99;74.07;98751.06;3812355;23;20022;-78
2021/01/01 04:41:15;;;;;;;13.23;7.05;;;;;;;4.98;74.25;98760.00;3820633;23;20452;-77
2021/01/01 04:42:46;;;;;;;13.13;7.65;;;;;;;4.88;74.52;98758.34;3813364;23;20025;-77
2021/01/01 04:44:26;;;;;;;10.43;5.85;;;;;;;4.86;74.44;98757.63;3821229;23;20471;-79
2021/01/01 04:45:57;;;;;;;11.35;6.47;;;;;;;4.80;74.60;98764.31;3814177;23;20382;-78
2021/01/01 04:47:32;;;;;;;15.38;8.82;;;;;;;4.77;74.49;98760.13;3811639;23;20017;-77
2021/01/01 04:49:04;;;;;;;14.45;7.53;;;;;;;4.81;74.80;98758.91;3821087;23;20022;-77
2021/01/01 04:50:37;;;;;;;12.43;6.82;;;;;;;4.73;74.98;98764.03;3812973;23;20030;-77
2021/01/01 04:52:09;;;;;;;11.07;6.57;;;;;;;4.77;74.90;98764.63;3820576;23;20021;-78
2021/01/01 04:53:42;;;;;;;12.05;6.35;;;;;;;4.82;74.96;98765.03;3812188;23;20035;-77
2021/01/01 04:55:14;;;;;;;15.02;8.18;;;;;;;4.79;74.88;98765.28;3821087;23;20100;-77
2021/01/01 04:56:49;;;;;;;10.55;6.32;;;;;;;4.79;74.69;98762.63;3813046;23;20028;-77
2021/01/01 04:58:27;;;;;;;11.13;5.95;;;;;;;4.82;74.38;98765.03;3819993;23;20533;-77
2021/01/01 05:00:00;;;;;;;10.82;5.93;;;;;;;4.76;74.57;98758.47;3812756;23;20021;-78
2021/01/01 05:01:34;;;;;;;12.23;6.80;;;;;;;4.75;74.79;98759.44;3820806;23;20419;-77
2021/01/01 05:03:05;;;;;;;12.23;6.55;;;;;;;4.79;74.63;98762.63;3812447;23;20025;-77
2021/01/01 05:04:45;;;;;;;11.05;5.82;;;;;;;4.84;74.62;98773.66;3821467;23;20025;-80
2021/01/01 05:06:27;;;;;;;9.80;5.40;;;;;;;4.84;74.34;98763.06;3814027;23;20088;-77
2021/01/01 05:08:03;;;;;;;13.07;6.63;;;;;;;4.87;74.68;98781.31;3821079;23;20259;-81
2021/01/01 05:09:34;;;;;;;15.45;8.10;;;;;;;4.82;74.48;98786.19;3814221;23;20025;-77
2021/01/01 05:11:10;;;;;;;12.93;7.28;;;;;;;4.71;74.37;98776.59;3821125;23;20041;-78
2021/01/01 05:12:44;;;;;;;13.30;6.57;;;;;;;4.75;74.65;98777.97;3813641;23;20018;-77
2021/01/01 05:14:28;;;;;;;13.82;7.10;;;;;;;4.66;74.69;98771.72;3821840;23;20037;-77
2021/01/01 05:16:00;;;;;;;10.98;5.47;;;;;;;4.67;74.83;98772.53;3815962;23;20048;-77
2021/01/01 05:17:34;;;;;;;13.85;7.03;;;;;;;4.64;74.76;98772.81;3812901;23;20021;-78
2021/01/01 05:19:14;;;;;;;15.38;8.15;;;;;;;4.60;74.70;98774.06;3821158;23;20029;-78
2021/01/01 05:20:48;;;;;;;10.93;7.35;;;;;;;4.61;75.14;98788.97;3812334;23;20018;-77
2021/01/01 05:22:31;;;;;;;11.82;7.13;;;;;;;4.55;75.13;98773.63;3819885;23;20021;-78
2021/01/01 05:24:05;;;;;;;14.50;6.50;;;;;;;4.57;74.96;98782.28;3812588;23;20080;-77
2021/01/01 05:25:38;;;;;;;12.15;6.70;;;;;;;4.54;75.21;98793.97;3821378;23;20025;-77
2021/01/01 05:27:19;;;;;;;12.25;6.50;;;;;;;4.44;75.30;98777.25;3812989;23;20021;-78
2021/01/01 05:29:03;;;;;;;12.50;6.30;;;;;;;4.49;75.10;98786.44;3820983;23;20032;-77
2021/01/01 05:30:39;;;;;;;12.85;6.53;;;;;;;4.52;75.24;98791.47;3811968;23;20045;-77
2021/01/01 05:32:25;;;;;;;10.75;6.47;;;;;;;4.48;74.90;98786.59;3820339;23;20025;-79
2021/01/01 05:33:59;;;;;;;11.27;5.85;;;;;;;4.48;75.20;98791.88;3813829;23;20030;-78
2021/01/01 05:35:31;;;;;;;11.00;6.57;;;;;;;4.37;75.49;98793.66;3812845;23;20036;-78
2021/01/01 05:37:02;;;;;;;13.13;7.53;;;;;;;4.42;75.62;98793.25;3820427;23;20033;-77
2021/01/01 05:38:36;;;;;;;10.93;6.75;;;;;;;4.46;75.45;98805.22;3811792;23;20076;-78
2021/01/01 05:40:12;;;;;;;11.00;6.60;;;;;;;4.43;75.44;98799.38;3820393;23;20029;-77
2021/01/01 05:41:56;;;;;;;10.13;6.05;;;;;;;4.38;75.73;98799.78;3814572;23;20025;-77
2021/01/01 05:46:22;;;;;;;12.05;7.18;;;;;;;4.30;76.00;98803.09;3829671;23;20069;-77
2021/01/01 05:48:08;;;;;;;13.00;7.10;;;;;;;4.21;76.16;98799.47;3826928;23;20021;-78
2021/01/01 05:49:41;;;;;;;12.57;6.53;;;;;;;4.23;75.92;98796.69;3831835;23;20018;-78
2021/01/01 05:51:14;;;;;;;11.00;6.10;;;;;;;4.27;75.97;98805.19;3817698;23;20017;-78
2021/01/01 06:09:29;;;;;;;9.90;4.80;;;;;;;4.17;76.40;98827.16;3812504;23;20017;-78
2021/01/01 06:11:04;;;;;;;10.98;6.25;;;;;;;4.24;76.41;98837.22;3820010;23;20052;-76
2021/01/01 06:12:37;;;;;;;11.25;5.72;;;;;;;4.24;76.14;98830.09;3812171;23;20358;-76
2021/01/01 06:14:08;;;;;;;8.18;5.22;;;;;;;4.19;76.21;98827.88;3819958;23;20355;-77
2021/01/01 06:15:43;;;;;;;9.98;5.90;;;;;;;4.18;76.25;98826.19;3812273;23;20068;-76
2021/01/01 06:17:20;;;;;;;10.52;5.93;;;;;;;4.11;76.44;98833.00;3820088;23;20021;-76
2021/01/01 06:18:58;;;;;;;10.20;5.60;;;;;;;4.10;76.43;98836.59;3811649;23;20029;-77
2021/01/01 06:20:39;;;;;;;12.40;6.55;;;;;;;4.08;76.18;98843.81;3812537;23;20036;-78
2021/01/01 06:27:13;;;;;;;8.73;4.60;;;;;;;4.00;76.21;98855.09;3814210;23;20041;-76
2021/01/01 06:28:48;;;;;;;8.15;4.90;;;;;;;3.97;76.08;98851.88;3821870;23;20077;-76
2021/01/01 06:30:21;;;;;;;8.27;4.68;;;;;;;3.99;76.02;98857.84;3816409;23;20028;-77
2021/01/01 06:33:37;;;;;;;9.18;4.68;;;;;;;3.87;75.88;98860.56;3817373;23;20039;-76
2021/01/01 06:35:13;;;;;;;8.50;4.32;;;;;;;3.87;75.34;98865.03;3820431;23;20108;-76
2021/01/01 06:36:51;;;;;;;5.93;3.30;;;;;;;3.92;75.34;98864.63;3810374;23;20363;-76
2021/01/01 06:38:37;;;;;;;7.53;4.32;;;;;;;3.94;75.24;98866.16;3811971;23;20021;-76
2021/01/01 06:40:33;;;;;;;7.40;4.18;;;;;;;3.89;74.90;98866.56;3821108;23;20033;-76
2021/01/01 06:42:08;;;;;;;7.45;3.78;;;;;;;3.97;74.83;98875.66;3813095;23;20018;-77
2021/01/01 06:43:55;;;;;;;8.07;3.45;;;;;;;3.89;74.74;98885.06;3821335;23;20029;-76
2021/01/01 06:45:45;;;;;;;6.38;3.25;;;;;;;3.89;74.95;98881.59;3810158;23;20032;-77
2021/01/01 06:47:44;;;;;;;7.20;3.65;;;;;;;3.79;74.79;98868.31;3820358;23;20021;-76
2021/01/01 06:49:31;;;;;;;6.10;3.05;;;;;;;3.80;74.61;98874.44;3813445;23;20033;-76
2021/01/01 06:51:03;;;;;;;5.90;3.08;;;;;;;3.79;74.99;98870.94;3812031;23;20100;-76
2021/01/01 06:52:35;;;;;;;5.88;2.85;;;;;;;3.89;74.88;98886.88;3820139;23;20537;-77
2021/01/01 06:54:11;;;;;;;6.75;3.35;;;;;;;3.86;74.69;98876.56;3810886;23;20026;-76
2021/01/01 06:55:44;;;;;;;8.07;3.42;;;;;;;3.92;74.80;98891.06;3820126;23;20040;-77
2021/01/01 06:57:15;;;;;;;7.88;3.90;;;;;;;3.86;74.65;98881.84;3797176;23;20018;-77
2021/01/01 06:58:47;;;;;;;6.10;3.35;;;;;;;3.88;74.77;98893.97;3819395;23;20033;-76
2021/01/01 07:00:52;;;;;;;8.85;3.70;;;;;;;3.85;74.77;98902.19;3812298;23;20013;-76
2021/01/01 07:05:44;;;;;;;6.32;2.72;;;;;;;3.80;74.86;98916.75;3813312;23;20018;-77
2021/01/01 07:07:43;;;;;;;6.38;3.20;;;;;;;3.69;74.79;98910.56;3820048;23;20022;-76
2021/01/01 07:09:15;;;;;;;5.40;2.50;;;;;;;3.70;74.89;98904.31;3812861;23;20017;-77
2021/01/01 07:10:47;;;;;;;6.88;3.17;;;;;;;3.65;74.89;98908.31;3821855;23;20036;-76
2021/01/01 07:12:19;;;;;;;6.57;2.92;;;;;;;3.73;74.78;98906.69;3811923;23;20025;-77
2021/01/01 07:13:52;;;;;;;5.38;2.92;;;;;;;3.75;74.52;98909.22;3820942;23;20025;-76
2021/01/01 07:15:36;;;;;;;6.65;3.30;;;;;;;3.81;74.35;98910.50;3812517;23;20346;-77
2021/01/01 07:17:10;;;;;;;5.43;3.05;;;;;;;3.77;74.30;98912.56;3821146;23;20049;-76
2021/01/01 07:18:42;;;;;;;5.63;2.67;;;;;;;3.77;74.47;98914.34;3815082;23;20455;-76
2021/01/01 07:20:16;;;;;;;5.32;2.63;;;;;;;3.70;74.43;98914.88;3821666;23;20017;-77
2021/01/01 07:21:50;;;;;;;6.07;3.10;;;;;;;3.70;74.46;98908.75;3812269;23;20028;-76
2021/01/01 07:23:32;;;;;;;6.07;2.85;;;;;;;3.72;74.44;98918.25;3812840;23;20026;-77
2021/01/01 07:25:06;;;;;;;5.00;2.47;;;;;;;3.78;74.38;98916.88;3821475;23;20028;-76
2021/01/01 07:26:38;;;;;;;6.10;2.63;;;;;;;3.79;74.40;98920.34;3812702;23;20025;-76
2021/01/01 07:28:20;;;;;;;6.10;2.70;;;;;;;3.77;74.31;98923.16;3821831;23;20017;-78
2021/01/01 07:29:53;;;;;;;5.93;2.58;;;;;;;3.79;74.33;98915.06;3810886;23;20021;-77
2021/01/01 07:31:28;;;;;;;5.93;3.03;;;;;;;3.72;74.35;98926.19;3821557;23;20032;-76
2021/01/01 07:33:02;;;;;;;4.72;2.40;;;;;;;3.74;74.20;98928.69;3812382;23;20072;-76
2021/01/01 07:34:41;;;;;;;5.47;3.13;;;;;;;3.65;74.02;98929.44;3821040;23;20025;-76
2021/01/01 07:36:16;;;;;;;5.95;2.72;;;;;;;3.57;74.11;98925.66;3814226;23;20047;-76
2021/01/01 07:37:59;;;;;;;6.30;2.70;;;;;;;3.52;74.37;98927.81;3821309;23;20022;-76
2021/01/01 07:39:30;;;;;;;6.00;2.90;;;;;;;3.47;74.55;98927.38;3813524;23;20084;-79
2021/01/01 07:41:02;;;;;;;6.32;2.72;;;;;;;3.49;74.65;98936.00;3821989;23;20018;-77
2021/01/01 07:42:47;;;;;;;5.63;2.45;;;;;;;3.57;74.19;98928.28;3799176;23;20021;-77
2021/01/01 07:44:22;;;;;;;5.95;2.50;;;;;;;3.63;74.04;98926.09;3820694;23;20462;-77
2021/01/01 07:45:54;;;;;;;4.32;2.33;;;;;;;3.70;73.99;98936.03;3813240;23;20042;-77
2021/01/01 07:47:29;;;;;;;5.22;2.63;;;;;;;3.71;73.69;98936.84;3813733;23;20529;-77
2021/01/01 07:49:02;;;;;;;6.93;2.97;;;;;;;3.64;73.83;98933.06;3821407;23;20021;-77
2021/01/01 07:50:46;;;;;;;5.18;2.70;;;;;;;3.61;73.49;98943.88;3813398;23;20397;-77
2021/01/01 07:55:39;;;;;;;7.68;2.58;;;;;;;3.57;73.76;98943.28;3824052;23;20078;-77
2021/01/01 07:57:20;;;;;;;5.60;2.70;;;;;;;3.61;73.43;98939.44;3814519;23;20088;-77
2021/01/01 07:58:54;;;;;;;5.60;2.80;;;;;;;3.55;73.53;98948.72;3822088;23;20032;-77
2021/01/01 08:00:34;;;;;;;5.35;2.67;;;;;;;3.55;74.02;98959.28;3813548;23;20052;-77
2021/01/01 08:02:18;;;;;;;4.88;2.55;;;;;;;3.50;73.64;98945.59;3821675;23;20213;-77
2021/01/01 08:03:51;;;;;;;4.88;2.50;;;;;;;3.53;73.88;98952.44;3815174;23;20466;-77
2021/01/01 08:05:27;;;;;;;5.35;2.67;;;;;;;3.54;73.62;98951.50;3811676;23;20160;-78
2021/01/01 08:07:05;;;;;;;5.93;3.03;;;;;;;3.57;73.40;98956.50;3821375;23;20025;-77
2021/01/01 08:08:37;;;;;;;5.22;2.78;;;;;;;3.52;73.70;98956.06;3814387;23;20030;-77